createdAt,value
2019-02-20T00:01:42.070Z,8.43
2019-02-20T00:04:12.281Z,7.07
2019-02-20T00:06:42.473Z,9.80
2019-02-20T00:09:12.703Z,10.23
2019-02-20T00:11:42.886Z,9.77
2019-02-20T00:14:13.127Z,7.87
2019-02-20T00:16:43.309Z,8.80
2019-02-20T00:19:13.527Z,7.70
2019-02-20T00:21:43.719Z,7.17
2019-02-20T00:24:13.945Z,9.30
2019-02-20T00:26:44.426Z,8.33
2019-02-20T00:29:14.968Z,13.47
2019-02-20T00:31:45.150Z,9.10
2019-02-20T00:34:15.828Z,12.63
2019-02-20T00:36:46.359Z,12.53
2019-02-20T00:39:16.561Z,8.17
2019-02-20T00:41:46.756Z,6.37
2019-02-20T00:44:18.614Z,11.10
2019-02-20T00:46:50.743Z,9.87
2019-02-20T00:49:22.602Z,7.17
2019-02-20T00:52:00.491Z,5.50
2019-02-20T00:54:30.714Z,9.40
2019-02-20T00:57:01.147Z,8.73
2019-02-20T00:59:31.362Z,8.53
2019-02-20T01:02:01.553Z,8.23
2019-02-20T01:04:31.761Z,8.07
2019-02-20T01:07:01.974Z,6.63
2019-02-20T01:09:32.167Z,8.23
2019-02-20T01:12:02.404Z,7.57
2019-02-20T01:14:32.588Z,8.13
2019-02-20T01:17:03.155Z,11.90
2019-02-20T01:19:33.714Z,7.20
2019-02-20T01:22:03.989Z,7.77
2019-02-20T01:24:34.177Z,6.60
2019-02-20T01:27:04.406Z,7.97
2019-02-20T01:29:34.597Z,8.97
2019-02-20T01:32:04.814Z,9.97
2019-02-20T01:34:35.013Z,12.73
2019-02-20T01:37:05.578Z,9.33
2019-02-20T01:39:35.759Z,10.10
2019-02-20T01:42:06.226Z,9.87
2019-02-20T01:44:36.414Z,7.57
2019-02-20T01:47:06.622Z,9.07
2019-02-20T01:49:37.110Z,8.73
2019-02-20T01:52:07.636Z,8.47
2019-02-20T01:54:37.835Z,11.20
2019-02-20T01:57:08.046Z,9.73
2019-02-20T01:59:38.268Z,9.73
2019-02-20T02:02:08.458Z,8.73
2019-02-20T02:04:38.972Z,8.20
2019-02-20T02:07:09.171Z,10.73
2019-02-20T02:09:39.396Z,4.53
2019-02-20T02:12:09.576Z,7.73
2019-02-20T02:14:39.799Z,8.43
2019-02-20T02:17:10.031Z,9.33
2019-02-20T02:19:40.204Z,10.20
2019-02-20T02:22:10.772Z,6.13
2019-02-20T02:24:41.288Z,11.00
2019-02-20T02:27:11.841Z,10.77
2019-02-20T02:29:42.051Z,8.67
2019-02-20T02:32:12.290Z,7.43
2019-02-20T02:34:42.483Z,8.53
2019-02-20T02:37:12.671Z,11.10
2019-02-20T02:39:43.147Z,10.17
2019-02-20T02:42:13.343Z,11.77
2019-02-20T02:44:43.916Z,12.87
2019-02-20T02:47:14.108Z,6.83
2019-02-20T02:49:44.660Z,9.77
2019-02-20T02:52:14.850Z,11.60
2019-02-20T02:54:45.137Z,13.17
2019-02-20T02:57:15.339Z,7.53
2019-02-20T02:59:45.874Z,14.77
2019-02-20T03:02:16.080Z,9.07
2019-02-20T03:04:46.554Z,11.83
2019-02-20T03:07:17.067Z,11.67
2019-02-20T03:09:47.268Z,9.30
2019-02-20T03:12:17.550Z,12.20
2019-02-20T03:14:47.771Z,11.80
2019-02-20T03:17:17.970Z,8.27
2019-02-20T03:19:48.207Z,14.67
2019-02-20T03:22:18.485Z,11.23
2019-02-20T03:24:48.162Z,11.27
2019-02-20T03:27:18.386Z,9.10
2019-02-20T03:29:48.875Z,10.13
2019-02-20T03:32:19.122Z,12.57
2019-02-20T03:34:49.652Z,9.60
2019-02-20T03:37:20.272Z,10.63
2019-02-20T03:39:50.490Z,12.10
2019-02-20T03:42:20.717Z,13.00
2019-02-20T03:44:51.252Z,7.63
2019-02-20T03:47:21.787Z,15.00
2019-02-20T03:49:52.016Z,10.87
2019-02-20T03:52:23.150Z,9.90
2019-02-20T03:54:53.696Z,11.67
2019-02-20T03:57:24.375Z,12.20
2019-02-20T03:59:54.590Z,12.40
2019-02-20T04:02:24.799Z,8.97
2019-02-20T04:04:55.022Z,10.97
2019-02-20T04:07:25.528Z,7.23
2019-02-20T04:09:56.068Z,12.73
2019-02-20T04:12:26.280Z,7.73
2019-02-20T04:14:56.454Z,12.77
2019-02-20T04:17:26.943Z,12.33
2019-02-20T04:19:57.150Z,14.37
2019-02-20T04:22:27.421Z,16.03
2019-02-20T04:24:57.927Z,15.47
2019-02-20T04:27:28.460Z,15.60
2019-02-20T04:29:58.659Z,10.13
2019-02-20T04:32:28.866Z,14.67
2019-02-20T04:34:59.356Z,9.93
2019-02-20T04:37:29.579Z,9.17
2019-02-20T04:39:59.782Z,16.80
2019-02-20T04:42:29.992Z,13.63
2019-02-20T04:45:00.283Z,11.80
2019-02-20T04:47:30.603Z,16.20
2019-02-20T04:50:00.785Z,10.10
2019-02-20T04:52:30.998Z,12.33
2019-02-20T04:55:01.456Z,13.37
2019-02-20T04:57:31.676Z,13.27
2019-02-20T05:00:01.926Z,13.33
2019-02-20T05:02:32.170Z,14.03
2019-02-20T05:05:02.655Z,12.40
2019-02-20T05:07:32.902Z,12.00
2019-02-20T05:10:03.313Z,12.77
2019-02-20T05:12:33.523Z,10.40
2019-02-20T05:15:04.308Z,14.10
2019-02-20T05:17:34.804Z,11.87
2019-02-20T05:20:08.054Z,11.97
2019-02-20T05:22:38.269Z,10.17
2019-02-20T05:25:08.508Z,17.27
2019-02-20T05:27:38.993Z,14.73
2019-02-20T05:30:09.645Z,18.27
2019-02-20T05:32:39.854Z,12.53
2019-02-20T05:35:10.371Z,14.27
2019-02-20T05:37:40.903Z,14.40
2019-02-20T05:40:11.947Z,11.13
2019-02-20T05:42:42.155Z,15.67
2019-02-20T05:45:12.385Z,12.00
2019-02-20T05:47:42.591Z,15.10
2019-02-20T05:50:13.268Z,11.63
2019-02-20T05:52:43.475Z,16.47
2019-02-20T05:55:13.698Z,12.63
2019-02-20T05:57:43.921Z,12.97
2019-02-20T06:00:14.581Z,13.03
2019-02-20T06:02:44.808Z,13.80
2019-02-20T06:05:15.035Z,15.87
2019-02-20T06:07:45.553Z,14.03
2019-02-20T06:10:15.798Z,13.83
2019-02-20T06:12:46.406Z,14.47
2019-02-20T06:15:16.622Z,12.30
2019-02-20T06:17:46.829Z,15.03
2019-02-20T06:20:17.053Z,15.37
2019-02-20T06:22:47.517Z,17.97
2019-02-20T06:25:17.709Z,15.20
2019-02-20T06:27:47.937Z,17.87
2019-02-20T06:30:18.132Z,19.20
2019-02-20T06:32:48.631Z,15.77
2019-02-20T06:35:19.153Z,17.70
2019-02-20T06:37:49.381Z,17.37
2019-02-20T06:40:19.582Z,16.53
2019-02-20T06:42:49.809Z,18.03
2019-02-20T06:45:20.015Z,14.23
2019-02-20T06:47:50.503Z,15.97
2019-02-20T06:50:20.754Z,16.10
2019-02-20T06:52:51.016Z,17.67
2019-02-20T06:55:21.229Z,13.83
2019-02-20T06:57:51.790Z,19.40
2019-02-20T07:00:22.343Z,16.50
2019-02-20T07:02:52.530Z,15.93
2019-02-20T07:05:34.240Z,16.53
2019-02-20T07:08:31.885Z,18.33
2019-02-20T07:11:31.071Z,19.27
2019-02-20T07:14:19.835Z,20.47
2019-02-20T07:17:02.044Z,19.63
2019-02-20T07:19:44.431Z,21.10
2019-02-20T07:22:34.162Z,19.73
2019-02-20T07:25:16.595Z,21.03
2019-02-20T07:28:09.834Z,21.53
2019-02-20T07:30:40.067Z,23.93
2019-02-20T07:33:10.628Z,18.03
2019-02-20T07:35:41.145Z,18.20
2019-02-20T07:38:11.661Z,18.27
2019-02-20T07:40:41.890Z,17.73
2019-02-20T07:43:12.095Z,17.80
2019-02-20T07:45:42.742Z,20.30
2019-02-20T07:48:12.956Z,23.63
2019-02-20T07:50:43.177Z,21.77
2019-02-20T07:53:13.402Z,23.33
2019-02-20T07:55:43.603Z,20.73
2019-02-20T07:58:13.826Z,24.60
2019-02-20T08:00:44.307Z,23.40
2019-02-20T08:03:14.540Z,27.23
2019-02-20T08:05:45.166Z,25.00
2019-02-20T08:08:15.699Z,26.33
2019-02-20T08:10:45.931Z,26.03
2019-02-20T08:13:16.134Z,24.60
2019-02-20T08:15:46.367Z,25.57
2019-02-20T08:18:16.931Z,27.53
2019-02-20T08:20:47.131Z,27.23
2019-02-20T08:23:17.376Z,26.00
2019-02-20T08:25:47.898Z,21.33
2019-02-20T08:28:18.440Z,28.77
2019-02-20T08:30:48.962Z,33.93
2019-02-20T08:33:19.482Z,27.90
2019-02-20T08:35:49.721Z,25.33
2019-02-20T08:38:19.957Z,32.23
2019-02-20T08:40:50.140Z,29.00
2019-02-20T08:43:20.362Z,33.23
2019-02-20T08:45:50.604Z,26.07
2019-02-20T08:48:21.142Z,29.07
2019-02-20T08:50:51.681Z,32.40
2019-02-20T08:53:22.233Z,30.47
2019-02-20T08:55:52.444Z,29.73
2019-02-20T08:58:22.644Z,35.87
2019-02-20T09:00:52.895Z,28.03
2019-02-20T09:03:23.089Z,30.00
2019-02-20T09:05:53.312Z,33.77
2019-02-20T09:08:23.522Z,29.70
2019-02-20T09:10:53.763Z,27.20
2019-02-20T09:13:24.627Z,29.00
2019-02-20T09:15:54.857Z,24.57
2019-02-20T09:18:25.074Z,28.13
2019-02-20T09:20:55.305Z,25.77
2019-02-20T09:23:25.526Z,25.50
2019-02-20T09:25:55.782Z,27.47
2019-02-20T09:28:26.289Z,29.93
2019-02-20T09:30:56.486Z,25.47
2019-02-20T09:33:26.730Z,25.10
2019-02-20T09:35:56.927Z,32.17
2019-02-20T09:38:27.509Z,28.07
2019-02-20T09:40:58.122Z,29.80
2019-02-20T09:43:28.351Z,27.80
2019-02-20T09:45:58.549Z,26.73
2019-02-20T09:48:29.350Z,25.95
2019-02-20T09:50:59.557Z,25.80
2019-02-20T09:53:30.358Z,28.85
2019-02-20T09:56:01.129Z,25.52
2019-02-20T09:58:31.942Z,25.62
2019-02-20T10:01:03.125Z,24.40
2019-02-20T10:03:34.036Z,21.77
2019-02-20T10:06:04.821Z,21.27
2019-02-20T10:08:35.618Z,25.08
2019-02-20T10:11:06.406Z,22.98
2019-02-20T10:13:37.226Z,20.15
2019-02-20T10:16:07.995Z,17.25
2019-02-20T10:18:38.799Z,17.45
2019-02-20T10:21:09.597Z,19.57
2019-02-20T10:23:40.757Z,16.60
2019-02-20T10:26:11.534Z,15.60
2019-02-20T10:28:42.352Z,18.25
2019-02-20T10:31:13.160Z,15.18
2019-02-20T10:33:43.999Z,19.25
2019-02-20T10:36:15.067Z,14.28
2019-02-20T10:38:45.955Z,18.05
2019-02-20T10:41:17.046Z,15.60
2019-02-20T10:43:48.198Z,15.75
2019-02-20T10:46:19.014Z,13.53
2019-02-20T10:48:49.796Z,15.63
2019-02-20T10:51:20.590Z,15.20
2019-02-20T10:53:51.355Z,15.35
2019-02-20T10:56:22.130Z,15.23
2019-02-20T10:58:52.894Z,15.30
2019-02-20T11:01:23.710Z,13.62
2019-02-20T11:03:54.798Z,15.10
2019-02-20T11:06:25.586Z,14.47
2019-02-20T11:08:56.353Z,12.75
2019-02-20T11:11:27.428Z,14.15
2019-02-20T11:13:58.458Z,12.40
2019-02-20T11:16:29.504Z,15.83
2019-02-20T11:19:00.283Z,12.98
2019-02-20T11:21:31.387Z,14.83
2019-02-20T11:24:04.016Z,16.40
2019-02-20T11:26:43.519Z,14.65
2019-02-20T11:29:07.582Z,11.90
2019-02-20T11:31:38.645Z,15.50
2019-02-20T11:34:09.675Z,15.00
2019-02-20T11:36:40.563Z,15.98
2019-02-20T11:39:11.785Z,13.62
2019-02-20T11:41:42.826Z,14.78
2019-02-20T11:44:20.856Z,14.50
2019-02-20T11:46:46.435Z,13.90
2019-02-20T11:49:17.235Z,12.45
2019-02-20T11:51:48.317Z,13.60
2019-02-20T11:54:19.355Z,10.40
2019-02-20T11:56:50.162Z,10.40
2019-02-20T11:59:21.244Z,12.60
2019-02-20T12:01:52.404Z,9.95
2019-02-20T12:04:23.174Z,11.10
2019-02-20T12:06:53.986Z,13.13
2019-02-20T12:09:25.117Z,10.98
2019-02-20T12:11:55.886Z,12.60
2019-02-20T12:14:26.825Z,10.95
2019-02-20T12:16:57.606Z,12.85
2019-02-20T12:19:28.452Z,11.00
2019-02-20T12:21:59.622Z,9.08
2019-02-20T12:24:30.430Z,10.55
2019-02-20T12:27:01.187Z,8.48
2019-02-20T12:29:32.059Z,9.03
2019-02-20T12:32:02.826Z,9.50
2019-02-20T12:34:33.616Z,10.18
2019-02-20T12:37:04.747Z,8.15
2019-02-20T12:39:35.896Z,10.08
2019-02-20T12:42:06.680Z,9.38
2019-02-20T12:44:37.783Z,6.80
2019-02-20T12:47:08.918Z,8.15
2019-02-20T12:49:39.743Z,11.53
2019-02-20T12:52:10.500Z,7.25
2019-02-20T12:54:41.300Z,6.67
2019-02-20T12:57:12.062Z,9.05
2019-02-20T12:59:43.155Z,7.53
2019-02-20T13:02:13.919Z,7.95
2019-02-20T13:04:44.721Z,6.17
2019-02-20T13:07:15.498Z,6.17
2019-02-20T13:09:46.286Z,7.33
2019-02-20T13:12:17.066Z,6.45
2019-02-20T13:14:47.865Z,5.97
2019-02-20T13:17:18.886Z,5.37
2019-02-20T13:19:49.658Z,9.25
2019-02-20T13:22:20.547Z,9.98
2019-02-20T13:24:51.312Z,6.85
2019-02-20T13:27:23.126Z,6.20
2019-02-20T13:29:54.314Z,5.37
2019-02-20T13:32:25.121Z,6.60
2019-02-20T13:34:56.209Z,5.53
2019-02-20T13:37:27.023Z,6.80
2019-02-20T13:39:58.083Z,7.08
2019-02-20T13:42:28.877Z,8.48
2019-02-20T13:44:59.972Z,7.58
2019-02-20T13:47:30.758Z,6.00
2019-02-20T13:50:01.530Z,6.72
2019-02-20T13:52:32.334Z,7.25
2019-02-20T13:55:03.840Z,8.15
2019-02-20T13:57:34.972Z,6.42
2019-02-20T14:00:08.816Z,7.53
2019-02-20T14:02:39.609Z,8.05
2019-02-20T14:05:10.452Z,7.42
2019-02-20T14:07:41.629Z,9.75
2019-02-20T14:10:13.021Z,8.13
2019-02-20T14:12:43.814Z,8.28
2019-02-20T14:15:14.765Z,10.40
2019-02-20T14:17:45.591Z,8.40
2019-02-20T14:20:16.355Z,8.48
2019-02-20T14:22:47.191Z,10.18
2019-02-20T14:25:19.235Z,8.43
2019-02-20T14:27:50.266Z,7.12
2019-02-20T14:30:21.322Z,8.83
2019-02-20T14:32:52.459Z,7.30
2019-02-20T14:35:23.489Z,8.93
2019-02-20T14:37:54.286Z,6.78
2019-02-20T14:40:25.105Z,9.70
2019-02-20T14:42:55.873Z,6.55
2019-02-20T14:45:26.666Z,6.58
2019-02-20T14:47:57.694Z,7.42
2019-02-20T14:50:28.485Z,7.85
2019-02-20T14:52:59.254Z,8.25
2019-02-20T14:55:30.051Z,7.00
2019-02-20T14:58:01.159Z,6.25
2019-02-20T15:00:31.941Z,6.37
2019-02-20T15:03:03.359Z,8.08
2019-02-20T15:05:34.158Z,9.23
2019-02-20T15:08:05.561Z,6.30
2019-02-20T15:10:36.496Z,7.90
2019-02-20T15:13:07.254Z,9.60
2019-02-20T15:15:38.046Z,7.12
2019-02-20T15:18:08.803Z,8.60
2019-02-20T15:20:39.960Z,8.83
2019-02-20T15:23:10.739Z,8.63
2019-02-20T15:25:41.549Z,8.63
2019-02-20T15:28:12.806Z,9.80
2019-02-20T15:30:44.223Z,8.35
2019-02-20T15:33:15.167Z,11.12
2019-02-20T15:35:46.296Z,7.25
2019-02-20T15:38:17.066Z,9.33
2019-02-20T15:40:47.866Z,8.90
2019-02-20T15:43:19.014Z,8.58
2019-02-20T15:45:49.829Z,7.22
2019-02-20T15:48:23.209Z,13.58
2019-02-20T15:50:53.398Z,9.00
2019-02-20T15:53:24.431Z,7.90
2019-02-20T15:55:55.225Z,8.38
2019-02-20T15:58:27.293Z,10.65
2019-02-20T16:00:58.419Z,8.48
2019-02-20T16:03:29.230Z,8.65
2019-02-20T16:06:00.086Z,9.90
2019-02-20T16:08:31.009Z,9.78
2019-02-20T16:11:02.250Z,8.28
2019-02-20T16:13:33.292Z,7.65
2019-02-20T16:16:04.091Z,6.28
2019-02-20T16:18:34.854Z,8.70
2019-02-20T16:21:05.734Z,6.97
2019-02-20T16:23:36.502Z,9.68
2019-02-20T16:26:07.689Z,8.25
2019-02-20T16:28:38.482Z,7.87
2019-02-20T16:31:09.275Z,9.50
2019-02-20T16:33:40.328Z,8.65
2019-02-20T16:36:11.187Z,9.60
2019-02-20T16:38:42.319Z,8.90
2019-02-20T16:41:13.451Z,11.93
2019-02-20T16:43:44.235Z,8.98
2019-02-20T16:46:16.966Z,9.65
2019-02-20T16:48:47.918Z,10.88
2019-02-20T16:51:18.694Z,11.38
2019-02-20T16:53:49.787Z,8.30
2019-02-20T16:56:20.836Z,7.65
2019-02-20T16:58:51.659Z,9.53
2019-02-20T17:01:22.923Z,8.48
2019-02-20T17:03:53.740Z,8.73
2019-02-20T17:06:25.047Z,9.55
2019-02-20T17:08:56.255Z,10.98
2019-02-20T17:11:27.034Z,9.23
2019-02-20T17:13:57.823Z,8.25
2019-02-20T17:16:28.600Z,8.08
2019-02-20T17:18:59.890Z,8.58
2019-02-20T17:21:30.884Z,8.33
2019-02-20T17:24:02.030Z,6.85
2019-02-20T17:26:32.805Z,9.40
2019-02-20T17:29:03.915Z,10.08
2019-02-20T17:31:35.130Z,9.08
2019-02-20T17:34:05.997Z,9.63
2019-02-20T17:36:37.023Z,7.50
2019-02-20T17:39:08.373Z,7.40
2019-02-20T17:41:39.414Z,9.93
2019-02-20T17:44:10.203Z,9.03
2019-02-20T17:46:41.249Z,10.80
2019-02-20T17:49:12.050Z,11.70
2019-02-20T17:51:42.827Z,9.68
2019-02-20T17:54:13.609Z,9.80
2019-02-20T17:56:44.395Z,10.85
2019-02-20T17:59:15.902Z,9.65
2019-02-20T18:01:46.956Z,7.97
2019-02-20T18:04:17.768Z,9.00
2019-02-20T18:06:48.945Z,8.25
2019-02-20T18:09:19.720Z,10.55
2019-02-20T18:11:50.524Z,12.60
2019-02-20T18:14:21.291Z,9.90
2019-02-20T18:16:52.111Z,9.73
2019-02-20T18:19:22.878Z,9.18
2019-02-20T18:21:53.736Z,10.60
2019-02-20T18:24:26.061Z,10.40
2019-02-20T18:26:57.868Z,12.82
2019-02-20T18:29:28.753Z,12.18
2019-02-20T18:31:59.914Z,13.90
2019-02-20T18:34:30.751Z,13.48
2019-02-20T18:37:01.571Z,14.68
2019-02-20T18:39:32.705Z,12.13
2019-02-20T18:42:03.516Z,11.75
2019-02-20T18:44:34.590Z,11.65
2019-02-20T18:47:07.518Z,11.35
2019-02-20T18:49:38.997Z,10.08
2019-02-20T18:52:10.303Z,8.75
2019-02-20T18:54:41.327Z,9.20
2019-02-20T18:57:12.123Z,10.95
2019-02-20T18:59:42.966Z,17.60
2019-02-20T19:02:14.767Z,21.70
2019-02-20T19:04:45.563Z,14.78
2019-02-20T19:07:16.377Z,14.75
2019-02-20T19:09:47.190Z,13.00
2019-02-20T19:12:29.782Z,14.07
2019-02-20T19:15:15.023Z,11.85
2019-02-20T19:18:22.645Z,9.63
2019-02-20T19:21:02.357Z,10.45
2019-02-20T19:24:02.198Z,10.95
2019-02-20T19:26:36.108Z,13.48
2019-02-20T19:29:09.983Z,15.55
2019-02-20T19:32:12.827Z,13.95
2019-02-20T19:34:52.733Z,14.03
2019-02-20T19:37:41.369Z,13.88
2019-02-20T19:40:27.366Z,13.62
2019-02-20T19:43:27.127Z,12.75
2019-02-20T19:45:57.066Z,10.95
2019-02-20T19:48:58.226Z,13.60
2019-02-20T19:51:47.109Z,12.30
2019-02-20T19:54:24.042Z,11.85
2019-02-20T19:57:09.905Z,12.60
2019-02-20T19:59:52.332Z,10.98
2019-02-20T20:02:38.025Z,14.25
2019-02-20T20:05:22.484Z,13.53
2019-02-20T20:08:20.191Z,10.45
2019-02-20T20:11:12.036Z,10.63
2019-02-20T20:13:46.229Z,11.95
2019-02-20T20:16:36.833Z,12.28
2019-02-20T20:19:16.966Z,11.22
2019-02-20T20:21:59.435Z,11.40
2019-02-20T20:24:48.028Z,11.13
2019-02-20T20:27:38.369Z,13.60
2019-02-20T20:30:35.115Z,12.47
2019-02-20T20:33:15.097Z,12.50
2019-02-20T20:36:20.740Z,13.27
2019-02-20T20:39:13.000Z,13.13
2019-02-20T20:42:05.907Z,14.60
2019-02-20T20:44:54.215Z,13.57
2019-02-20T20:47:30.107Z,14.97
2019-02-20T20:50:10.003Z,11.55
2019-02-20T20:53:17.698Z,11.90
2019-02-20T20:56:13.083Z,16.07
2019-02-20T20:58:55.362Z,16.43
2019-02-20T21:01:49.943Z,14.80
2019-02-20T21:04:29.756Z,11.93
2019-02-20T21:07:22.777Z,14.70
2019-02-20T21:09:58.798Z,12.03
2019-02-20T21:12:47.461Z,19.47
2019-02-20T21:15:41.491Z,12.93
2019-02-20T21:18:14.800Z,14.43
2019-02-20T21:20:56.967Z,13.20
2019-02-20T21:23:36.063Z,12.30
2019-02-20T21:26:15.074Z,14.57
2019-02-20T21:28:54.362Z,11.27
2019-02-20T21:31:45.695Z,12.97
2019-02-20T21:34:31.186Z,20.87
2019-02-20T21:37:27.601Z,16.00
2019-02-20T21:40:00.903Z,12.43
2019-02-20T21:42:56.898Z,12.87
2019-02-20T21:45:39.044Z,13.50
2019-02-20T21:48:15.223Z,15.57
2019-02-20T21:50:53.790Z,12.57
2019-02-20T21:53:48.479Z,14.93
2019-02-20T21:56:30.885Z,11.53
2019-02-20T21:59:09.875Z,15.87
2019-02-20T22:01:49.173Z,13.20
2019-02-20T22:04:25.693Z,11.60
2019-02-20T22:07:17.147Z,12.80
2019-02-20T22:09:57.716Z,11.83
2019-02-20T22:12:36.576Z,12.50
2019-02-20T22:15:29.221Z,13.80
2019-02-20T22:18:05.202Z,13.73
2019-02-20T22:20:50.385Z,16.47
2019-02-20T22:23:23.672Z,16.33
2019-02-20T22:26:05.767Z,14.07
2019-02-20T22:28:57.330Z,15.63
2019-02-20T22:32:00.524Z,14.73
2019-02-20T22:34:39.450Z,14.33
2019-02-20T22:37:30.117Z,14.57
2019-02-20T22:40:24.704Z,14.37
2019-02-20T22:43:06.841Z,15.80
2019-02-20T22:45:54.967Z,14.70
2019-02-20T22:48:49.735Z,14.47
2019-02-20T22:51:41.089Z,13.77
2019-02-20T22:54:17.226Z,13.43
2019-02-20T22:57:02.352Z,14.07
2019-02-20T22:59:42.139Z,15.37
2019-02-20T23:02:30.758Z,12.83
2019-02-20T23:05:22.440Z,15.23
2019-02-20T23:07:58.192Z,15.80
2019-02-20T23:10:34.171Z,12.57
2019-02-20T23:13:10.954Z,13.30
2019-02-20T23:15:43.290Z,13.37
2019-02-20T23:18:13.347Z,13.50
2019-02-20T23:20:43.575Z,12.77
2019-02-20T23:23:13.779Z,11.63
2019-02-20T23:25:44.328Z,14.57
2019-02-20T23:28:14.862Z,13.40
2019-02-20T23:30:45.401Z,14.90
2019-02-20T23:33:15.932Z,13.53
2019-02-20T23:35:46.171Z,12.57
2019-02-20T23:38:16.361Z,15.53
2019-02-20T23:40:46.591Z,11.03
2019-02-20T23:43:16.820Z,14.90
2019-02-20T23:45:47.050Z,13.83
2019-02-20T23:48:17.246Z,12.17
2019-02-20T23:50:47.470Z,13.80
2019-02-20T23:53:18.711Z,13.73
2019-02-20T23:55:49.169Z,14.70
2019-02-20T23:58:19.357Z,13.87
